Time;durP1;ratioP1;P1;durP2;ratioP2;P2;SDS_P1;SDS_P2;PMS_P1;PMS_P2;Temp;Humidity;BMP_temperature;BMP_pressure;BME280_temperature;BME280_humidity;BME280_pressure;Samples;Min_cycle;Max_cycle;Signal;HPM_P1;HPM_P2
2022/04/14 00:02:47;;;;;;;;;;;;;;;;;;;;;
2022/04/14 00:05:57;;;;;;;;;;;;;;;19.24;34.84;101381.19;103169;1322;62033;-86
2022/04/14 00:08:38;;;;;;;;;;;;;;;19.24;34.81;101379.92;103183;1321;71658;-81
2022/04/14 00:11:13;;;;;;;;;;;;;;;19.24;34.82;101378.33;103328;1320;74487;-81
2022/04/14 00:14:34;;;;;;;;;;;;;;;19.24;34.79;101377.98;103266;1321;62026;-84
2022/04/14 00:17:32;;;;;;;;;;;;;;;;;;;;;
2022/04/14 00:20:09;;;;;;;;;;;;;;;;;;;;;
2022/04/14 00:23:11;;;;;;;;;;;;;;;19.24;34.91;101380.11;103798;1316;75671;-80
2022/04/14 00:25:57;;;;;;;;;;;;;;;19.24;34.95;101373.17;103845;1317;62097;-80
2022/04/14 00:28:42;;;;;;;;;;;;;;;19.24;34.95;101369.60;103831;1317;62077;-82
2022/04/14 00:31:25;;;;;;;;;;;;;;;19.24;34.94;101368.54;103838;1317;72825;-85
2022/04/14 00:34:18;;;;;;;;;;;;;;;19.24;34.94;101365.52;103813;1317;76039;-82
2022/04/14 00:37:10;;;;;;;;;;;;;;;;;;;;;
2022/04/14 00:39:56;;;;;;;;;;;;;;;19.23;34.95;101360.04;104480;1305;62164;-82
2022/04/14 00:42:31;;;;;;;;;;;;;;;19.23;34.97;101356.27;104750;1306;72574;-80
2022/04/14 00:45:27;;;;;;;;;;;;;;;19.23;34.96;101356.30;104651;1305;74363;-81
2022/04/14 00:48:34;;;;;;;;;;;;;;;19.22;34.99;101356.84;104827;1305;62254;-82
2022/04/14 00:54:10;;;;;;;;;;;;;;;19.22;34.94;101358.44;104633;1305;73834;-84
2022/04/14 00:56:53;;;;;;;;;;;;;;;19.22;35.07;101353.66;104444;1306;76756;-87
2022/04/14 01:00:08;;;;;;;;;;;;;;;19.22;35.01;101353.11;104838;1305;62430;-84
2022/04/14 01:03:16;;;;;;;;;;;;;;;;;;;;;
2022/04/14 01:05:45;;;;;;;;;;;;;;;19.22;35.08;101350.45;104858;1305;72266;-82
2022/04/14 01:09:16;;;;;;;;;;;;;;;19.22;35.07;101357.23;104643;1305;76740;-84
2022/04/14 01:11:30;;;;;;;;;;;;;;;19.22;35.24;101362.58;104672;1305;62133;-83
2022/04/14 01:14:30;;;;;;;;;;;;;;;19.22;35.14;101358.30;104840;1305;62107;-84
2022/04/14 01:17:15;;;;;;;;;;;;;;;19.21;35.18;101356.02;104270;1313;73864;-82
2022/04/14 01:19:50;;;;;;;;;;;;;;;19.22;35.06;101353.30;104266;1313;76250;-80
2022/04/14 01:22:45;;;;;;;;;;;;;;;19.21;35.06;101357.61;104226;1313;62035;-82
2022/04/14 01:25:19;;;;;;;;;;;;;;;19.21;35.15;101354.95;104065;1313;62029;-82
2022/04/14 01:28:02;;;;;;;;;;;;;;;19.21;35.18;101361.94;104183;1313;72896;-82
2022/04/14 01:30:45;;;;;;;;;;;;;;;;;;;;;
2022/04/14 01:33:34;;;;;;;;;;;;;;;19.20;35.20;101356.78;104195;1313;61890;-83
2022/04/14 01:36:20;;;;;;;;;;;;;;;;;;;;;
2022/04/14 01:39:18;;;;;;;;;;;;;;;19.20;35.17;101358.77;104202;1313;71982;-85
2022/04/14 01:41:46;;;;;;;;;;;;;;;19.20;35.26;101360.91;104226;1313;75746;-84
2022/04/14 01:44:35;;;;;;;;;;;;;;;19.20;35.29;101361.79;104228;1314;61970;-85
2022/04/14 01:47:01;;;;;;;;;;;;;;;19.20;35.23;101363.95;104353;1313;63790;-82
2022/04/14 01:49:35;;;;;;;;;;;;;;;19.19;35.27;101363.08;104285;1313;62063;-83
2022/04/14 01:53:08;;;;;;;;;;;;;;;19.19;35.30;101364.70;104234;1313;75639;-80
2022/04/14 01:55:39;;;;;;;;;;;;;;;19.19;35.28;101361.85;104651;1305;63589;-82
2022/04/14 01:58:46;;;;;;;;;;;;;;;19.18;35.33;101362.23;104860;1305;62040;-83
2022/04/14 02:01:20;;;;;;;;;;;;;;;19.19;35.43;101357.90;104759;1306;73148;-82
2022/04/14 02:04:14;;;;;;;;;;;;;;;19.19;35.39;101354.35;104343;1311;74497;-83
2022/04/14 02:07:16;;;;;;;;;;;;;;;;;;;;;
2022/04/14 02:10:00;;;;;;;;;;;;;;;19.19;35.51;101355.64;104338;1311;62199;-84
2022/04/14 02:13:01;;;;;;;;;;;;;;;19.18;35.41;101358.13;104355;1313;71691;-84
2022/04/14 02:15:39;;;;;;;;;;;;;;;;;;;;;
2022/04/14 02:18:38;;;;;;;;;;;;;;;19.18;35.49;101364.04;103793;1317;62123;-82
2022/04/14 02:21:44;;;;;;;;;;;;;;;19.18;35.47;101362.45;103025;1325;62151;-83
2022/04/14 02:24:28;;;;;;;;;;;;;;;;;;;;;
2022/04/14 02:27:33;;;;;;;;;;;;;;;19.18;35.54;101363.86;102635;1329;75686;-83
2022/04/14 02:30:05;;;;;;;;;;;;;;;19.18;35.50;101365.45;102573;1327;63243;-81
2022/04/14 02:33:09;;;;;;;;;;;;;;;;;;;;;
2022/04/14 02:36:05;;;;;;;;;;;;;;;19.18;35.61;101367.95;102247;1335;75028;-85
2022/04/14 02:38:49;;;;;;;;;;;;;;;;;;;;;
2022/04/14 02:41:41;;;;;;;;;;;;;;;19.18;35.57;101367.61;102272;1332;61897;-81
2022/04/14 02:44:43;;;;;;;;;;;;;;;19.19;35.66;101370.63;102494;1332;62174;-84
2022/04/14 02:47:41;;;;;;;;;;;;;;;;;;;;;
2022/04/14 02:50:38;;;;;;;;;;;;;;;;;;;;;
2022/04/14 02:53:15;;;;;;;;;;;;;;;19.18;35.68;101373.16;101832;1337;62208;-83
2022/04/14 02:56:04;;;;;;;;;;;;;;;;;;;;;
2022/04/14 02:59:19;;;;;;;;;;;;;;;19.18;35.64;101377.80;102168;1333;71656;-82
2022/04/14 03:02:17;;;;;;;;;;;;;;;19.17;35.77;101376.93;102510;1326;75421;-86
2022/04/14 03:05:02;;;;;;;;;;;;;;;;;;;;;
2022/04/14 03:07:59;;;;;;;;;;;;;;;;;;;;;
2022/04/14 03:11:25;;;;;;;;;;;;;;;;;;;;;
2022/04/14 03:14:51;;;;;;;;;;;;;;;;;;;;;
2022/04/14 03:17:50;;;;;;;;;;;;;;;19.17;35.72;101381.40;102515;1331;62170;-85
2022/04/14 03:20:26;;;;;;;;;;;;;;;19.17;35.72;101384.98;101928;1340;62450;-85
2022/04/14 03:23:13;;;;;;;;;;;;;;;;;;;;;
2022/04/14 03:26:11;;;;;;;;;;;;;;;19.17;35.71;101391.20;101899;1340;75626;-82
2022/04/14 03:28:43;;;;;;;;;;;;;;;19.17;35.70;101391.03;102050;1335;62252;-79
2022/04/14 03:32:19;;;;;;;;;;;;;;;;;;;;;
2022/04/14 03:34:52;;;;;;;;;;;;;;;19.17;35.79;101395.52;102697;1328;73934;-82
2022/04/14 03:37:39;;;;;;;;;;;;;;;19.16;35.74;101395.70;102724;1328;76548;-82
2022/04/14 03:40:31;;;;;;;;;;;;;;;19.16;35.74;101396.42;102709;1328;62281;-84
2022/04/14 03:43:37;;;;;;;;;;;;;;;19.16;35.81;101399.83;102726;1328;62007;-80
2022/04/14 03:46:26;;;;;;;;;;;;;;;19.16;35.82;101409.11;102514;1332;72807;-87
2022/04/14 03:52:39;;;;;;;;;;;;;;;;;;;;;
2022/04/14 03:55:08;;;;;;;;;;;;;;;19.17;35.85;101412.13;102739;1326;62018;-79
2022/04/14 03:58:09;;;;;;;;;;;;;;;19.17;35.83;101411.05;103082;1321;72943;-83
2022/04/14 04:01:15;;;;;;;;;;;;;;;19.16;35.77;101407.33;102630;1328;74483;-82
2022/04/14 04:04:02;;;;;;;;;;;;;;;19.16;35.90;101408.39;102725;1325;62005;-81
2022/04/14 04:06:35;;;;;;;;;;;;;;;19.16;35.94;101410.38;102739;1325;61992;-85
2022/04/14 04:09:39;;;;;;;;;;;;;;;19.16;36.01;101415.20;102741;1325;73031;-88
2022/04/14 04:12:10;;;;;;;;;;;;;;;19.15;36.02;101416.86;102689;1325;77259;-83
2022/04/14 04:14:58;;;;;;;;;;;;;;;19.14;36.05;101418.51;102734;1325;62094;-85
2022/04/14 04:17:36;;;;;;;;;;;;;;;19.14;36.04;101419.41;102569;1331;62068;-85
2022/04/14 04:20:21;;;;;;;;;;;;;;;19.14;36.04;101421.03;102526;1332;72706;-81
2022/04/14 04:22:57;;;;;;;;;;;;;;;19.15;36.02;101427.56;102486;1329;76655;-81
2022/04/14 04:26:05;;;;;;;;;;;;;;;19.17;35.96;101425.49;102241;1334;62154;-79
2022/04/14 04:28:50;;;;;;;;;;;;;;;19.21;35.93;101430.09;101904;1339;62186;-82
2022/04/14 04:31:43;;;;;;;;;;;;;;;19.27;35.95;101431.40;101875;1334;72964;-79
2022/04/14 04:34:14;;;;;;;;;;;;;;;19.31;35.77;101432.94;102045;1334;75682;-80
2022/04/14 04:37:00;;;;;;;;;;;;;;;19.35;35.63;101433.47;102194;1334;62057;-83
2022/04/14 04:39:26;;;;;;;;;;;;;;;19.39;35.71;101438.05;102510;1328;62063;-82
2022/04/14 04:42:32;;;;;;;;;;;;;;;19.42;35.50;101440.90;102582;1328;74300;-78
2022/04/14 04:45:01;;;;;;;;;;;;;;;19.47;35.39;101443.88;102549;1328;75745;-84
2022/04/14 04:47:56;;;;;;;;;;;;;;;19.50;35.27;101448.16;102693;1328;62087;-83
2022/04/14 04:50:22;;;;;;;;;;;;;;;19.55;35.09;101450.41;102551;1328;62102;-83
2022/04/14 04:52:50;;;;;;;;;;;;;;;19.57;34.94;101451.34;102423;1329;72952;-81
2022/04/14 04:56:03;;;;;;;;;;;;;;;19.58;34.80;101453.23;103245;1319;74414;-81
2022/04/14 04:58:31;;;;;;;;;;;;;;;19.62;34.55;101451.13;103402;1317;62162;-81
2022/04/14 05:00:57;;;;;;;;;;;;;;;19.63;34.52;101452.33;103438;1319;62129;-79
2022/04/14 05:03:30;;;;;;;;;;;;;;;19.64;34.38;101452.41;103656;1311;73811;-80
2022/04/14 05:05:56;;;;;;;;;;;;;;;19.67;34.20;101453.69;104291;1306;63437;-80
2022/04/14 05:08:27;;;;;;;;;;;;;;;19.69;33.93;101457.88;104692;1305;62094;-81
2022/04/14 05:10:56;;;;;;;;;;;;;;;19.68;34.00;101460.91;104555;1306;62228;-79
2022/04/14 05:13:22;;;;;;;;;;;;;;;19.69;33.78;101455.54;104537;1305;62091;-79
2022/04/14 05:15:48;;;;;;;;;;;;;;;19.70;33.73;101457.97;104518;1305;62103;-81
2022/04/14 05:18:14;;;;;;;;;;;;;;;19.73;33.70;101463.00;104162;1307;62141;-81
2022/04/14 05:20:42;;;;;;;;;;;;;;;19.76;33.68;101466.58;104132;1306;62101;-80
2022/04/14 05:23:10;;;;;;;;;;;;;;;19.79;33.49;101470.70;104438;1307;60918;-79
2022/04/14 05:25:36;;;;;;;;;;;;;;;19.80;33.46;101475.12;104507;1305;76380;-82
2022/04/14 05:28:02;;;;;;;;;;;;;;;19.80;33.43;101477.82;104552;1305;62093;-80
2022/04/14 05:30:28;;;;;;;;;;;;;;;19.79;33.35;101478.90;104519;1303;61344;-79
2022/04/14 05:32:53;;;;;;;;;;;;;;;19.81;33.09;101476.00;104177;1303;59832;-80
2022/04/14 05:35:21;;;;;;;;;;;;;;;19.82;33.20;101476.66;104140;1307;62210;-82
2022/04/14 05:37:47;;;;;;;;;;;;;;;19.84;33.11;101475.98;104399;1303;60526;-79
2022/04/14 05:40:12;;;;;;;;;;;;;;;19.87;33.04;101475.63;104930;1303;60345;-80
2022/04/14 05:42:45;;;;;;;;;;;;;;;19.91;33.08;101482.36;104359;1306;62103;-81
2022/04/14 05:45:14;;;;;;;;;;;;;;;19.95;33.01;101480.05;104291;1305;76609;-80
2022/04/14 05:47:39;;;;;;;;;;;;;;;19.96;32.80;101480.14;104163;1306;61567;-80
2022/04/14 05:50:05;;;;;;;;;;;;;;;19.97;32.68;101483.70;104211;1306;62089;-83
2022/04/14 05:52:34;;;;;;;;;;;;;;;19.97;32.47;101481.73;104326;1306;72754;-82
2022/04/14 05:55:03;;;;;;;;;;;;;;;19.98;32.39;101476.47;104532;1305;75813;-81
2022/04/14 05:57:29;;;;;;;;;;;;;;;19.97;32.28;101476.02;104650;1303;62226;-79
2022/04/14 05:59:54;;;;;;;;;;;;;;;19.96;32.16;101473.92;104285;1306;62082;-80
2022/04/14 06:02:20;;;;;;;;;;;;;;;19.95;32.17;101483.97;104299;1306;60916;-80
2022/04/14 06:04:45;;;;;;;;;;;;;;;19.94;32.09;101479.55;104520;1303;62104;-79
2022/04/14 06:07:11;;;;;;;;;;;;;;;19.92;32.19;101479.09;104423;1304;76380;-80
2022/04/14 06:09:39;;;;;;;;;;;;;;;19.92;32.20;101483.90;104281;1305;60458;-80
2022/04/14 06:12:05;;;;;;;;;;;;;;;19.93;32.07;101486.89;104354;1306;61951;-81
2022/04/14 06:14:33;;;;;;;;;;;;;;;19.95;32.06;101487.71;104337;1306;62315;-80
2022/04/14 06:17:03;;;;;;;;;;;;;;;19.98;32.05;101487.94;104542;1305;74530;-84
2022/04/14 06:19:29;;;;;;;;;;;;;;;20.00;32.13;101492.80;104705;1304;61876;-80
2022/04/14 06:21:55;;;;;;;;;;;;;;;20.03;32.23;101492.48;104297;1306;62077;-83
2022/04/14 06:24:21;;;;;;;;;;;;;;;20.06;32.28;101491.77;104526;1306;62070;-80
2022/04/14 06:26:46;;;;;;;;;;;;;;;20.08;32.27;101487.16;104530;1305;62072;-80
2022/04/14 06:29:11;;;;;;;;;;;;;;;20.09;32.26;101488.34;104504;1306;62085;-82
2022/04/14 06:31:37;;;;;;;;;;;;;;;20.10;32.47;101485.95;104682;1303;62098;-80
2022/04/14 06:34:05;;;;;;;;;;;;;;;20.12;32.45;101485.68;103901;1306;61935;-80
2022/04/14 06:36:30;;;;;;;;;;;;;;;20.14;32.28;101487.38;103888;1305;73220;-79
2022/04/14 06:38:56;;;;;;;;;;;;;;;20.15;32.42;101489.30;103909;1306;62235;-79
2022/04/14 06:41:25;;;;;;;;;;;;;;;20.16;32.32;101489.91;104164;1306;62109;-83
2022/04/14 06:43:50;;;;;;;;;;;;;;;20.17;32.22;101490.40;104134;1303;61919;-80
2022/04/14 06:46:16;;;;;;;;;;;;;;;20.20;32.15;101492.75;103991;1305;62184;-80
2022/04/14 06:48:42;;;;;;;;;;;;;;;20.20;32.09;101489.88;103247;1306;823558;-78
2022/04/14 06:51:07;;;;;;;;;;;;;;;20.20;32.16;101492.39;103792;1306;62146;-80
2022/04/14 06:53:35;;;;;;;;;;;;;;;20.20;32.11;101488.66;103568;1306;64490;-79
2022/04/14 06:56:04;;;;;;;;;;;;;;;20.16;32.12;101492.09;103539;1306;63565;-79
2022/04/14 06:58:29;;;;;;;;;;;;;;;20.14;32.32;101491.48;103600;1306;62784;-80
2022/04/14 07:00:55;;;;;;;;;;;;;;;20.14;32.44;101492.54;103773;1303;62297;-79
2022/04/14 07:03:26;;;;;;;;;;;;;;;20.15;32.42;101493.61;104372;1303;62076;-81
2022/04/14 07:05:54;;;;;;;;;;;;;;;20.15;32.61;101492.33;104522;1305;73234;-80
2022/04/14 07:08:25;;;;;;;;;;;;;;;20.15;32.70;101490.70;104361;1305;75661;-80
2022/04/14 07:10:52;;;;;;;;;;;;;;;20.16;32.62;101490.48;104243;1304;60618;-80
2022/04/14 07:13:17;;;;;;;;;;;;;;;20.16;32.66;101486.37;104376;1306;60378;-80
2022/04/14 07:15:43;;;;;;;;;;;;;;;20.15;32.70;101483.77;104347;1306;62057;-81
2022/04/14 07:18:09;;;;;;;;;;;;;;;20.13;32.76;101482.25;104205;1306;60310;-80
2022/04/14 07:20:34;;;;;;;;;;;;;;;20.12;32.78;101485.36;104341;1305;61919;-80
2022/04/14 07:23:02;;;;;;;;;;;;;;;20.09;32.56;101483.51;104366;1306;62300;-81
2022/04/14 07:25:30;;;;;;;;;;;;;;;20.09;32.56;101484.07;105536;1303;60770;-79
2022/04/14 07:27:55;;;;;;;;;;;;;;;20.08;32.59;101484.66;105497;1304;74277;-79
2022/04/14 07:30:23;;;;;;;;;;;;;;;20.08;32.58;101486.95;105507;1305;59966;-79
2022/04/14 07:32:48;;;;;;;;;;;;;;;20.09;32.78;101486.20;104677;1308;62045;-81
2022/04/14 07:35:15;;;;;;;;;;;;;;;20.09;32.64;101483.01;104327;1306;62171;-81
2022/04/14 07:37:41;;;;;;;;;;;;;;;20.08;32.53;101482.33;104461;1305;62062;-81
2022/04/14 07:40:27;;;;;;;;;;;;;;;20.07;32.69;101484.52;104488;1306;74310;-80
2022/04/14 07:42:58;;;;;;;;;;;;;;;20.07;32.61;101488.31;104385;1305;62162;-80
2022/04/14 07:45:27;;;;;;;;;;;;;;;20.05;32.47;101485.37;104316;1305;63330;-80
2022/04/14 07:47:53;;;;;;;;;;;;;;;20.04;32.48;101487.90;104579;1305;72620;-81
2022/04/14 07:50:29;;;;;;;;;;;;;;;20.02;32.28;101495.90;104541;1305;62156;-81
2022/04/14 07:52:56;;;;;;;;;;;;;;;20.01;32.34;101493.63;104443;1306;62294;-80
2022/04/14 07:55:25;;;;;;;;;;;;;;;20.00;32.45;101497.27;104473;1306;61982;-80
2022/04/14 07:57:51;;;;;;;;;;;;;;;19.99;32.30;101498.58;104479;1305;72910;-82
2022/04/14 08:00:17;;;;;;;;;;;;;;;19.98;32.26;101501.17;104681;1305;62117;-81
2022/04/14 08:02:55;;;;;;;;;;;;;;;;;;;;;
2022/04/14 08:05:22;;;;;;;;;;;;;;;19.96;32.09;101504.64;104656;1305;62033;-80
2022/04/14 08:08:01;;;;;;;;;;;;;;;19.94;32.08;101502.92;104697;1305;72794;-85
2022/04/14 08:10:26;;;;;;;;;;;;;;;19.92;32.11;101504.64;104681;1305;74581;-81
2022/04/14 08:12:58;;;;;;;;;;;;;;;19.91;32.03;101506.83;104660;1306;60082;-81
2022/04/14 08:15:47;;;;;;;;;;;;;;;19.89;32.03;101502.69;104669;1305;62147;-86
2022/04/14 08:18:12;;;;;;;;;;;;;;;19.87;32.06;101503.66;104701;1303;72902;-83
2022/04/14 08:20:47;;;;;;;;;;;;;;;19.86;31.94;101504.10;104476;1306;62199;-82
2022/04/14 08:23:14;;;;;;;;;;;;;;;19.85;32.07;101505.57;104720;1303;61962;-81
2022/04/14 08:25:40;;;;;;;;;;;;;;;19.85;31.94;101506.66;104347;1306;62050;-80
2022/04/14 08:28:15;;;;;;;;;;;;;;;19.85;31.92;101507.40;104661;1305;62663;-80
2022/04/14 08:30:56;;;;;;;;;;;;;;;;;;;;;
2022/04/14 08:33:31;;;;;;;;;;;;;;;19.84;31.85;101514.02;104613;1306;62070;-85
2022/04/14 08:36:20;;;;;;;;;;;;;;;19.84;31.96;101510.64;104813;1305;61973;-82
2022/04/14 08:39:05;;;;;;;;;;;;;;;19.84;31.80;101505.66;104631;1305;72796;-83
2022/04/14 08:41:32;;;;;;;;;;;;;;;19.84;31.79;101502.45;104826;1305;75586;-84
2022/04/14 08:44:06;;;;;;;;;;;;;;;19.84;31.93;101503.34;104622;1305;62093;-79
2022/04/14 08:46:51;;;;;;;;;;;;;;;19.83;31.87;101498.39;104672;1305;62145;-83
2022/04/14 08:49:30;;;;;;;;;;;;;;;19.83;31.80;101496.77;104740;1303;72665;-86
2022/04/14 08:52:08;;;;;;;;;;;;;;;19.82;31.82;101502.53;104653;1306;76542;-80
2022/04/14 08:54:34;;;;;;;;;;;;;;;19.82;31.86;101495.61;104515;1305;60479;-80
2022/04/14 08:57:09;;;;;;;;;;;;;;;;;;;;;
2022/04/14 08:59:35;;;;;;;;;;;;;;;19.81;31.77;101492.25;104706;1302;73798;-80
2022/04/14 09:02:06;;;;;;;;;;;;;;;19.80;31.55;101488.86;104580;1305;62089;-81
2022/04/14 09:04:45;;;;;;;;;;;;;;;;;;;;;
2022/04/14 09:07:31;;;;;;;;;;;;;;;19.79;31.72;101484.98;104274;1307;61997;-84
2022/04/14 09:10:37;;;;;;;;;;;;;;;19.80;31.71;101487.45;104566;1304;71633;-81
2022/04/14 09:13:12;;;;;;;;;;;;;;;19.80;31.85;101485.11;104514;1304;76454;-81
2022/04/14 09:15:55;;;;;;;;;;;;;;;19.79;31.68;101483.55;104573;1303;62012;-80
2022/04/14 09:18:34;;;;;;;;;;;;;;;19.79;31.67;101481.26;104550;1305;62230;-81
2022/04/14 09:21:19;;;;;;;;;;;;;;;19.78;31.69;101479.33;104438;1306;74137;-82
2022/04/14 09:23:53;;;;;;;;;;;;;;;19.78;31.55;101474.31;104482;1306;76773;-80
2022/04/14 09:26:28;;;;;;;;;;;;;;;19.79;31.63;101476.63;104598;1305;62198;-83
2022/04/14 09:29:08;;;;;;;;;;;;;;;19.79;31.71;101473.56;104638;1305;62055;-81
2022/04/14 09:31:44;;;;;;;;;;;;;;;19.79;31.64;101469.67;105403;1305;73350;-80
2022/04/14 09:34:09;;;;;;;;;;;;;;;19.79;31.66;101469.81;104840;1306;77095;-81
2022/04/14 09:36:38;;;;;;;;;;;;;;;19.80;31.69;101467.29;104499;1305;62207;-81
2022/04/14 09:39:14;;;;;;;;;;;;;;;19.80;31.72;101466.19;104521;1305;61952;-80
2022/04/14 09:41:41;;;;;;;;;;;;;;;19.81;31.66;101464.56;104399;1305;74478;-80
2022/04/14 09:44:14;;;;;;;;;;;;;;;19.81;31.92;101462.23;104832;1306;59534;-82
2022/04/14 09:46:45;;;;;;;;;;;;;;;19.82;31.58;101457.92;104519;1306;62528;-80
2022/04/14 09:49:15;;;;;;;;;;;;;;;19.81;31.87;101461.17;104357;1308;62094;-80
2022/04/14 09:52:02;;;;;;;;;;;;;;;19.81;31.87;101457.41;104533;1306;72735;-82
2022/04/14 09:54:50;;;;;;;;;;;;;;;19.81;31.83;101450.09;104485;1306;75628;-83
2022/04/14 09:57:18;;;;;;;;;;;;;;;19.81;31.78;101445.45;104688;1305;62085;-81
2022/04/14 10:00:04;;;;;;;;;;;;;;;19.80;31.71;101447.77;104638;1305;62122;-85
2022/04/14 10:02:38;;;;;;;;;;;;;;;19.81;31.67;101445.81;104758;1305;72747;-82
2022/04/14 10:05:14;;;;;;;;;;;;;;;19.81;31.74;101440.27;104463;1307;74606;-84
2022/04/14 10:08:06;;;;;;;;;;;;;;;19.80;31.60;101437.61;104609;1305;62206;-79
2022/04/14 10:11:00;;;;;;;;;;;;;;;19.80;31.73;101435.27;104605;1305;61460;-88
2022/04/14 10:13:54;;;;;;;;;;;;;;;19.80;31.67;101434.03;104228;1313;73862;-79
2022/04/14 10:16:56;;;;;;;;;;;;;;;19.80;31.83;101431.54;104220;1313;76227;-81
2022/04/14 10:19:24;;;;;;;;;;;;;;;19.80;31.84;101430.10;103261;1322;62113;-81
2022/04/14 10:22:05;;;;;;;;;;;;;;;19.80;31.76;101428.31;103136;1322;63694;-82
2022/04/14 10:24:44;;;;;;;;;;;;;;;19.81;31.83;101425.63;103160;1322;72311;-83
2022/04/14 10:27:34;;;;;;;;;;;;;;;;;;;;;
2022/04/14 10:30:08;;;;;;;;;;;;;;;19.81;31.86;101430.45;103349;1319;62141;-84
2022/04/14 10:33:03;;;;;;;;;;;;;;;19.81;31.89;101428.84;103277;1320;62264;-84
2022/04/14 10:35:37;;;;;;;;;;;;;;;19.81;31.87;101425.27;103415;1319;73027;-85
2022/04/14 10:38:29;;;;;;;;;;;;;;;19.81;31.86;101422.77;103396;1319;75549;-81
2022/04/14 10:41:13;;;;;;;;;;;;;;;19.82;31.95;101425.02;103256;1321;62110;-81
2022/04/14 10:43:52;;;;;;;;;;;;;;;19.81;31.95;101425.63;103393;1319;62212;-83
2022/04/14 10:46:18;;;;;;;;;;;;;;;19.81;31.86;101429.00;103513;1319;73650;-80
2022/04/14 10:49:01;;;;;;;;;;;;;;;;;;;;;
2022/04/14 10:51:57;;;;;;;;;;;;;;;19.81;32.01;101426.15;104073;1314;62141;-82
2022/04/14 10:54:39;;;;;;;;;;;;;;;;;;;;;
2022/04/14 10:57:41;;;;;;;;;;;;;;;19.81;32.01;101423.84;104089;1305;74118;-83
2022/04/14 11:01:00;;;;;;;;;;;;;;;19.81;32.04;101423.12;104563;1308;74580;-85
2022/04/14 11:04:07;;;;;;;;;;;;;;;19.80;32.06;101421.88;104375;1310;62092;-82
2022/04/14 11:07:02;;;;;;;;;;;;;;;19.80;32.24;101422.60;104051;1316;62100;-80
2022/04/14 11:09:59;;;;;;;;;;;;;;;19.80;32.21;101417.59;103612;1314;73559;-78
2022/04/14 11:12:48;;;;;;;;;;;;;;;19.80;32.02;101418.50;104171;1314;75723;-82
2022/04/14 11:15:57;;;;;;;;;;;;;;;;;;;;;
2022/04/14 11:18:32;;;;;;;;;;;;;;;19.80;32.17;101418.15;103806;1317;62030;-81
2022/04/14 11:21:21;;;;;;;;;;;;;;;19.79;32.25;101410.52;103913;1316;72970;-83
2022/04/14 11:24:02;;;;;;;;;;;;;;;19.79;32.23;101408.73;103992;1314;76703;-84
2022/04/14 11:26:46;;;;;;;;;;;;;;;;;;;;;
2022/04/14 11:29:30;;;;;;;;;;;;;;;19.79;32.27;101401.23;103986;1314;62047;-80
2022/04/14 11:32:14;;;;;;;;;;;;;;;19.79;32.32;101403.35;103878;1315;72830;-80
2022/04/14 11:35:01;;;;;;;;;;;;;;;19.79;32.15;101397.12;103969;1314;76680;-81
2022/04/14 11:37:49;;;;;;;;;;;;;;;19.79;32.34;101401.23;104015;1310;62245;-80
2022/04/14 11:40:33;;;;;;;;;;;;;;;19.79;32.29;101396.75;104232;1305;62107;-79
2022/04/14 11:43:16;;;;;;;;;;;;;;;19.80;32.25;101393.14;104527;1305;72892;-84
2022/04/14 11:46:11;;;;;;;;;;;;;;;;;;;;;
2022/04/14 11:49:06;;;;;;;;;;;;;;;19.80;32.55;101388.85;104651;1305;61918;-83
2022/04/14 11:51:41;;;;;;;;;;;;;;;19.80;32.51;101387.41;104624;1305;62021;-79
2022/04/14 11:54:39;;;;;;;;;;;;;;;19.80;32.54;101377.60;104695;1305;72777;-82
2022/04/14 11:57:38;;;;;;;;;;;;;;;;;;;;;
2022/04/14 12:00:34;;;;;;;;;;;;;;;19.80;32.68;101373.52;104191;1314;62010;-81
2022/04/14 12:03:02;;;;;;;;;;;;;;;19.80;32.61;101370.99;104124;1314;62081;-82
2022/04/14 12:05:43;;;;;;;;;;;;;;;19.79;32.68;101372.81;104138;1314;73955;-85
2022/04/14 12:08:32;;;;;;;;;;;;;;;19.80;32.67;101367.96;104163;1312;76626;-86
2022/04/14 12:11:07;;;;;;;;;;;;;;;19.80;32.66;101366.00;104239;1314;61921;-84
2022/04/14 12:14:00;;;;;;;;;;;;;;;19.80;32.75;101361.20;104186;1312;61961;-80
2022/04/14 12:16:47;;;;;;;;;;;;;;;;;;;;;
2022/04/14 12:19:33;;;;;;;;;;;;;;;19.79;32.78;101352.64;104172;1314;75494;-82
2022/04/14 12:22:11;;;;;;;;;;;;;;;19.80;32.72;101348.84;104077;1314;62135;-83
2022/04/14 12:25:22;;;;;;;;;;;;;;;19.80;32.74;101342.41;104333;1314;62102;-82
2022/04/14 12:27:46;;;;;;;;;;;;;;;19.79;32.71;101344.58;104100;1314;73113;-83
2022/04/14 12:30:52;;;;;;;;;;;;;;;19.80;32.75;101344.55;104265;1312;74263;-84
2022/04/14 12:33:35;;;;;;;;;;;;;;;19.80;32.88;101342.40;104319;1314;62092;-86
2022/04/14 12:36:24;;;;;;;;;;;;;;;19.81;32.91;101342.73;104347;1314;63229;-81
2022/04/14 12:38:57;;;;;;;;;;;;;;;19.82;32.76;101344.67;104654;1305;74007;-85
2022/04/14 12:41:38;;;;;;;;;;;;;;;19.81;32.88;101340.78;104488;1308;76626;-80
2022/04/14 12:44:26;;;;;;;;;;;;;;;19.80;32.90;101347.94;104578;1305;62071;-87
2022/04/14 12:46:59;;;;;;;;;;;;;;;19.80;32.90;101352.41;104811;1305;62076;-84
2022/04/14 12:49:56;;;;;;;;;;;;;;;;;;;;;
2022/04/14 12:53:05;;;;;;;;;;;;;;;19.80;32.83;101340.80;104606;1308;74202;-82
2022/04/14 12:55:49;;;;;;;;;;;;;;;19.80;32.93;101340.80;104310;1314;62384;-83
2022/04/14 12:58:15;;;;;;;;;;;;;;;19.80;32.98;101332.79;104322;1314;62691;-85
2022/04/14 13:01:26;;;;;;;;;;;;;;;19.81;32.80;101329.89;104291;1314;62445;-82
2022/04/14 13:04:06;;;;;;;;;;;;;;;;;;;;;
2022/04/14 13:07:19;;;;;;;;;;;;;;;19.81;32.96;101337.91;103656;1320;62102;-83
2022/04/14 13:10:26;;;;;;;;;;;;;;;19.82;33.07;101340.35;103461;1317;61972;-79
2022/04/14 13:13:09;;;;;;;;;;;;;;;19.82;32.99;101340.89;103065;1322;71873;-83
2022/04/14 13:15:48;;;;;;;;;;;;;;;;;;;;;
2022/04/14 13:18:46;;;;;;;;;;;;;;;19.82;33.11;101329.27;102811;1326;62019;-84
2022/04/14 13:21:26;;;;;;;;;;;;;;;19.83;33.25;101322.45;102763;1326;62150;-82
2022/04/14 13:24:32;;;;;;;;;;;;;;;19.83;33.29;101320.64;102747;1326;73278;-84
2022/04/14 13:27:30;;;;;;;;;;;;;;;19.84;33.31;101323.98;102740;1325;77868;-86
2022/04/14 13:30:04;;;;;;;;;;;;;;;19.84;33.30;101321.30;102380;1332;62022;-85
2022/04/14 13:32:44;;;;;;;;;;;;;;;19.84;33.34;101322.71;102366;1329;62046;-86
2022/04/14 13:35:21;;;;;;;;;;;;;;;19.84;33.43;101316.10;102768;1329;72680;-83
2022/04/14 13:38:12;;;;;;;;;;;;;;;19.85;33.40;101312.33;102628;1329;76328;-81
2022/04/14 13:40:38;;;;;;;;;;;;;;;19.85;33.48;101309.45;102647;1326;61976;-80
2022/04/14 13:43:21;;;;;;;;;;;;;;;19.85;33.53;101305.34;102814;1326;62016;-82
2022/04/14 13:45:50;;;;;;;;;;;;;;;19.85;33.52;101307.14;102941;1324;72926;-87
2022/04/14 13:48:21;;;;;;;;;;;;;;;19.86;33.53;101307.63;103027;1317;76686;-80
2022/04/14 13:50:47;;;;;;;;;;;;;;;19.86;33.73;101309.06;103560;1317;62011;-81
2022/04/14 13:53:55;;;;;;;;;;;;;;;19.86;33.60;101306.70;103931;1316;62111;-81
2022/04/14 13:56:17;;;;;;;;;;;;;;;19.87;33.58;101308.30;103866;1314;72736;-86
2022/04/14 13:59:02;;;;;;;;;;;;;;;19.87;33.67;101309.52;104018;1314;76952;-82
2022/04/14 14:01:55;;;;;;;;;;;;;;;19.88;33.67;101306.94;104100;1313;62207;-80
2022/04/14 14:04:26;;;;;;;;;;;;;;;19.88;33.70;101302.66;103942;1313;62199;-81
2022/04/14 14:07:04;;;;;;;;;;;;;;;19.89;33.67;101302.27;104072;1308;72817;-81
2022/04/14 14:09:33;;;;;;;;;;;;;;;19.89;33.70;101307.77;104696;1305;75563;-81
2022/04/14 14:12:03;;;;;;;;;;;;;;;19.90;33.70;101309.70;104581;1305;63303;-83
2022/04/14 14:15:02;;;;;;;;;;;;;;;19.90;33.60;101310.02;104484;1308;61994;-81
2022/04/14 14:17:41;;;;;;;;;;;;;;;19.91;33.77;101307.14;104656;1305;73286;-84
2022/04/14 14:20:19;;;;;;;;;;;;;;;;;;;;;
2022/04/14 14:22:57;;;;;;;;;;;;;;;19.91;33.69;101305.16;104640;1305;62652;-81
2022/04/14 14:25:54;;;;;;;;;;;;;;;19.91;33.58;101308.22;104559;1308;62072;-82
2022/04/14 14:28:22;;;;;;;;;;;;;;;19.91;33.77;101301.59;104529;1305;72979;-81
2022/04/14 14:31:25;;;;;;;;;;;;;;;19.92;33.68;101306.04;104510;1307;77319;-84
2022/04/14 14:34:01;;;;;;;;;;;;;;;;;;;;;
2022/04/14 14:36:38;;;;;;;;;;;;;;;19.92;33.65;101309.23;104702;1304;62159;-82